Skip Navigation Links
NOAA logo - Click to go to the NOAA homepage
NOAA's National Weather Service
Alaska Aviation Weather Unit
  NWS logo - Click to go to the NWS homepage
Left Navbar Graphic     09 AKDT = 17 GMT

   
NOAA is celebrating 200 years of science, service, and stewardship. Visit the NOAA 200th celebration Web site to learn more.
USA.gov is the U.S. Government's official Web portal to all Federal, state and local government Web resources and services.
Facebook
NWS on Facebook

Important Change Regarding the AAWU Web Presence

 

Over the last several months, the AAWU has been working to navigate its webpages to a nationally supported server. Security, as well as other needs, have necessitated the change.  In the process, we have made an effort to enhance the functionality of our website, as well as some of our products. As of June 20, 2017, aawu.arh.noaa.gov will be discontinued. The new AAWU web address is weather.gov/aawu. It is now live and will run in-parallel with the old site until it is discontinued. Please send any feedback or questions regarding the new webpages to nws.ar.aawu.webauthors@noaa.gov.  Thank you for your patience during this time of transition.
AAWU Home :: Display TAF Add Bookmark
PASK 271156Z AUTO 07007KT 10SM CLR 02/01 A2995 RMK AO2 RAE01
     SLP140 P0000 60000 T00170006 10044 20017 53002 FZRANO $=

METAR PASK 271256Z AUTO 08008KT 10SM CLR 01/00 A2996 RMK AO2 SLP142
     T00110000 FZRANO $=

METAR PASK 271356Z AUTO 09006KT 10SM CLR 01/00 A2997 RMK AO2 SLP145
     T00110000 FZRANO $=

METAR PASK 271456Z AUTO 11006KT 10SM CLR 02/01 A2997 RMK AO2 SLP147
 T00220006 51006 FZRANO $=

METAR PASK 271556Z AUTO 12006KT 10SM CLR 04/01 A2998 RMK AO2 SLP149
     T00390011 $=

METAR PASK 271656Z AUTO 12006KT 10SM CLR 04/02 A2999 RMK AO2 SLP152
     T00390017 $=


NOAA's National Weather Service
Alaska Aviation Weather Unit
6930 Sand Lake Road
Anchorage, AK 99502-1845
Disclaimer
Credits
Glossary
Privacy Policy
About Us
Career Opportunities
Contact AAWU Internet Services Site last modified: April, 17th 2012